メインページ
METAR-TAF:

METAR-TAF

空港 :

ジブラルタル, ジブラルタル

ジブラルタル国際空港

緯度: 36-09N, 経度: 005-21W, 海抜: 5m

現時点の気象観測

当レポートは1時間1分前の10:50(UTC)に作成
東/北東の風 14kt、最大24ktの突風を伴う
気温 22°C
湿度 73%
気圧 1017 hPa
視程10km以上
高度1300ftの雲はほとんどない
高度16000ftの千切れ雲あり
高度25000ftの千切れ雲あり

METAR: LXGB 241050Z 07014G24KT 9999 FEW013 BKN160 BKN250 22/17 Q1017 NOSIG

時間: 13:51 (11:51 UTC)

予報

当レポートは1時間27分前の10:24(UTC)に作成
予報は24日の 12時(UTC)から 24日の 21時(UTC)まで有効
の風 13kt
視程10km以上
高度1300ftの雲はほとんどない
24日の 12時(UTC)から 24日の 21時(UTC)まで一時的に
の風 16kt、最大26ktの突風を伴う

TAF: LXGB 241024Z 2412/2421 09013KT 9999 FEW013 TEMPO 2412/2421 09016G26KT

4,000以上の空港の気象観測と天気予報(METAR報とTAF報)

利用可能な観測所は地図上に黄色い丸と赤い丸で示す。

丸の上にカーソルを重ねると観測所名を参照できる。

次にクリックすると気象観測と天気予報を参照できる。

マップの切り替え:黒色「×」印の緑ボタンをクリックして拡大、「-」印の緑ボタンをクリックして縮小、緑色の三角印をクリックして隣りの地図に切り替え


METAR-TAF: